Time;durP1;ratioP1;P1;durP2;ratioP2;P2;SDS_P1;SDS_P2;PMS_P1;PMS_P2;Temp;Humidity;BMP_temperature;BMP_pressure;BME280_temperature;BME280_humidity;BME280_pressure;Samples;Min_cycle;Max_cycle;Signal;HPM_P1;HPM_P2
2024/04/03 00:00:28;;;;;;;5.53;0.88;;;;;;;;;;5031476;28;20132;-71
2024/04/03 00:02:53;;;;;;;8.87;1.27;;;;;;;;;;5028977;28;20393;-70
2024/04/03 00:05:18;;;;;;;6.73;1.63;;;;;;;;;;5028579;28;20264;-70
2024/04/03 00:07:44;;;;;;;6.28;2.05;;;;;;;;;;5029672;28;20379;-71
2024/04/03 00:10:09;;;;;;;3.38;1.52;;;;;;;;;;5031359;28;20028;-70
2024/04/03 00:12:34;;;;;;;10.63;1.90;;;;;;;;;;5027570;28;20022;-70
2024/04/03 00:14:59;;;;;;;5.20;1.30;;;;;;;;;;5027770;28;20535;-70
2024/04/03 00:17:24;;;;;;;4.57;1.40;;;;;;;;;;5027062;28;20014;-70
2024/04/03 00:19:50;;;;;;;8.03;1.83;;;;;;;;;;5029353;28;20264;-70
2024/04/03 00:22:15;;;;;;;7.40;1.53;;;;;;;;;;5026878;28;20260;-70
2024/04/03 00:24:40;;;;;;;16.50;1.97;;;;;;;;;;5028373;28;20260;-70
2024/04/03 00:27:05;;;;;;;5.65;1.50;;;;;;;;;;5030710;28;20817;-70
2024/04/03 00:29:30;;;;;;;3.65;1.08;;;;;;;;;;5020351;28;20101;-70
2024/04/03 00:31:55;;;;;;;8.18;1.65;;;;;;;;;;5026445;28;20017;-70
2024/04/03 00:34:21;;;;;;;7.83;2.13;;;;;;;;;;5029629;28;20452;-70
2024/04/03 00:36:46;;;;;;;6.67;1.50;;;;;;;;;;5029537;28;20319;-70
2024/04/03 00:39:11;;;;;;;5.70;1.13;;;;;;;;;;5030941;28;20262;-70
2024/04/03 00:41:36;;;;;;;7.23;1.40;;;;;;;;;;5028688;28;20292;-70
2024/04/03 00:44:01;;;;;;;5.30;1.17;;;;;;;;;;5026131;28;20294;-70
2024/04/03 00:46:27;;;;;;;11.07;1.73;;;;;;;;;;5028956;28;20280;-70
2024/04/03 00:48:52;;;;;;;7.82;1.50;;;;;;;;;;5028086;28;20039;-71
2024/04/03 00:51:17;;;;;;;2.28;1.45;;;;;;;;;;5024565;28;20013;-71
2024/04/03 00:53:43;;;;;;;4.55;1.60;;;;;;;;;;5030916;28;20060;-70
2024/04/03 00:56:10;;;;;;;8.48;1.45;;;;;;;;;;5028933;28;20104;-70
2024/04/03 00:58:35;;;;;;;3.17;1.23;;;;;;;;;;5031935;28;20025;-70
2024/04/03 01:01:00;;;;;;;4.70;1.65;;;;;;;;;;5027634;28;20348;-70
2024/04/03 01:03:26;;;;;;;7.13;1.30;;;;;;;;;;5026592;28;20022;-70
2024/04/03 01:06:00;;;;;;;9.98;1.80;;;;;;;;;;5029644;28;20095;-70
2024/04/03 01:08:26;;;;;;;6.05;1.58;;;;;;;;;;5026185;28;20177;-70
2024/04/03 01:10:51;;;;;;;4.57;1.43;;;;;;;;;;5021807;28;20119;-70
2024/04/03 01:13:16;;;;;;;12.93;1.65;;;;;;;;;;5029859;28;20255;-70
2024/04/03 01:15:41;;;;;;;10.53;1.93;;;;;;;;;;5022243;28;20100;-70
2024/04/03 01:18:06;;;;;;;4.23;1.63;;;;;;;;;;5030053;28;20774;-70
2024/04/03 01:20:32;;;;;;;5.20;1.50;;;;;;;;;;5036177;28;20264;-70
2024/04/03 01:22:57;;;;;;;4.63;1.67;;;;;;;;;;5027799;28;20300;-70
2024/04/03 01:25:22;;;;;;;3.03;1.27;;;;;;;;;;5027723;28;20283;-69
2024/04/03 01:27:47;;;;;;;11.13;1.80;;;;;;;;;;5026559;28;20288;-70
2024/04/03 01:30:12;;;;;;;6.93;2.07;;;;;;;;;;5025521;28;20272;-70
2024/04/03 01:32:38;;;;;;;6.10;1.50;;;;;;;;;;5029462;28;20245;-71
2024/04/03 01:35:03;;;;;;;6.03;1.40;;;;;;;;;;5030061;28;20318;-70
2024/04/03 01:37:28;;;;;;;5.13;2.00;;;;;;;;;;5036554;28;20071;-70
2024/04/03 01:39:53;;;;;;;5.85;1.88;;;;;;;;;;5028641;28;20439;-70
2024/04/03 01:42:20;;;;;;;5.17;1.73;;;;;;;;;;5028601;28;20388;-70
2024/04/03 01:44:45;;;;;;;10.00;1.45;;;;;;;;;;5028764;28;20272;-70
2024/04/03 01:47:10;;;;;;;7.63;1.80;;;;;;;;;;5029892;28;20033;-70
2024/04/03 01:49:35;;;;;;;8.03;1.77;;;;;;;;;;5026699;28;20762;-70
2024/04/03 01:52:01;;;;;;;13.77;1.90;;;;;;;;;;5029210;28;20278;-68
2024/04/03 01:54:27;;;;;;;7.00;2.10;;;;;;;;;;5028224;28;20570;-68
2024/04/03 01:56:52;;;;;;;5.70;2.28;;;;;;;;;;5029369;28;20264;-68
2024/04/03 01:59:17;;;;;;;8.10;1.90;;;;;;;;;;5025115;28;20044;-68
2024/04/03 02:01:42;;;;;;;9.80;2.45;;;;;;;;;;5028854;28;20487;-67
2024/04/03 02:04:07;;;;;;;5.07;1.50;;;;;;;;;;5029717;28;20448;-68
2024/04/03 02:06:33;;;;;;;5.93;2.00;;;;;;;;;;5022971;28;20272;-68
2024/04/03 02:08:58;;;;;;;10.50;1.53;;;;;;;;;;5025536;28;20784;-69
2024/04/03 02:11:23;;;;;;;4.90;1.90;;;;;;;;;;5027699;28;20249;-69
2024/04/03 02:13:48;;;;;;;9.88;1.98;;;;;;;;;;5029017;28;20692;-68
2024/04/03 02:16:13;;;;;;;8.73;1.60;;;;;;;;;;5029446;28;20017;-68
2024/04/03 02:18:38;;;;;;;8.40;1.80;;;;;;;;;;5027068;28;20763;-68
2024/04/03 02:21:04;;;;;;;5.50;1.80;;;;;;;;;;5028855;28;20260;-68
2024/04/03 02:23:29;;;;;;;10.23;2.38;;;;;;;;;;5028940;28;20017;-68
2024/04/03 02:25:54;;;;;;;5.47;1.52;;;;;;;;;;5022435;28;20079;-68
2024/04/03 02:28:20;;;;;;;4.93;1.80;;;;;;;;;;5029151;28;20472;-68
2024/04/03 02:30:45;;;;;;;4.83;1.50;;;;;;;;;;5022860;28;20341;-68
2024/04/03 02:33:11;;;;;;;3.33;1.77;;;;;;;;;;5027810;28;20260;-68
2024/04/03 02:35:37;;;;;;;6.78;1.90;;;;;;;;;;5029382;28;20735;-68
2024/04/03 02:38:02;;;;;;;7.40;2.03;;;;;;;;;;5029055;28;20052;-68
2024/04/03 02:40:27;;;;;;;7.78;1.20;;;;;;;;;;5027818;28;20272;-68
2024/04/03 02:42:52;;;;;;;6.23;1.60;;;;;;;;;;5028759;28;20159;-68
2024/04/03 02:45:17;;;;;;;10.60;1.80;;;;;;;;;;5029056;28;20244;-68
2024/04/03 02:47:42;;;;;;;8.20;1.70;;;;;;;;;;5028497;28;20799;-68
2024/04/03 02:50:08;;;;;;;13.07;1.88;;;;;;;;;;5028165;28;20025;-69
2024/04/03 02:52:33;;;;;;;9.88;2.00;;;;;;;;;;5029117;28;20057;-68
2024/04/03 02:55:00;;;;;;;7.10;1.90;;;;;;;;;;5027399;28;20020;-68
2024/04/03 02:57:25;;;;;;;5.32;2.10;;;;;;;;;;5028968;28;20083;-68
2024/04/03 02:59:50;;;;;;;2.53;1.00;;;;;;;;;;5027928;28;20034;-68
2024/04/03 03:02:15;;;;;;;6.17;1.70;;;;;;;;;;5028615;28;20278;-68
2024/04/03 03:04:41;;;;;;;8.40;2.73;;;;;;;;;;5028365;28;20272;-69
2024/04/03 03:07:10;;;;;;;11.25;2.72;;;;;;;;;;5033132;28;20289;-68
2024/04/03 03:09:35;;;;;;;6.82;2.45;;;;;;;;;;5027816;28;20029;-68
2024/04/03 03:12:01;;;;;;;7.40;1.48;;;;;;;;;;5029825;28;20034;-68
2024/04/03 03:14:26;;;;;;;8.40;2.05;;;;;;;;;;5032425;28;20033;-68
2024/04/03 03:16:51;;;;;;;13.98;2.28;;;;;;;;;;5032052;28;20098;-68
2024/04/03 03:19:16;;;;;;;7.63;2.27;;;;;;;;;;5031754;28;20529;-68
2024/04/03 03:21:41;;;;;;;8.65;1.33;;;;;;;;;;5031391;28;20287;-69
2024/04/03 03:24:07;;;;;;;6.63;1.50;;;;;;;;;;5032631;28;20022;-68
2024/04/03 03:26:32;;;;;;;9.10;1.55;;;;;;;;;;5033628;28;20333;-68
2024/04/03 03:28:57;;;;;;;8.95;1.67;;;;;;;;;;5031992;28;20029;-69
2024/04/03 03:31:22;;;;;;;9.52;1.83;;;;;;;;;;5032057;28;20388;-68
2024/04/03 03:33:47;;;;;;;6.30;2.60;;;;;;;;;;5030706;28;20029;-68
2024/04/03 03:36:12;;;;;;;15.47;2.57;;;;;;;;;;5028182;28;20635;-69
2024/04/03 03:38:38;;;;;;;8.90;1.80;;;;;;;;;;5029541;28;20375;-68
2024/04/03 03:41:04;;;;;;;9.00;2.50;;;;;;;;;;5029327;28;20378;-68
2024/04/03 03:43:29;;;;;;;6.03;1.30;;;;;;;;;;5030467;28;20021;-68
2024/04/03 03:45:54;;;;;;;8.87;1.93;;;;;;;;;;5030049;28;20404;-68
2024/04/03 03:48:21;;;;;;;11.03;1.80;;;;;;;;;;5030171;28;20318;-68
2024/04/03 03:53:30;;;;;;;9.15;2.13;;;;;;;;;;5026942;28;20033;-68
2024/04/03 03:55:56;;;;;;;5.82;1.90;;;;;;;;;;5029066;28;20032;-68
2024/04/03 03:58:21;;;;;;;13.90;1.70;;;;;;;;;;5030913;28;20025;-68
2024/04/03 04:00:46;;;;;;;7.55;1.63;;;;;;;;;;5023348;28;20304;-68
2024/04/03 04:03:11;;;;;;;12.98;2.15;;;;;;;;;;5025733;28;20495;-68
2024/04/03 04:05:37;;;;;;;6.68;1.90;;;;;;;;;;5023592;28;20522;-69
2024/04/03 04:08:02;;;;;;;13.43;2.33;;;;;;;;;;5028784;28;20480;-68
2024/04/03 04:10:27;;;;;;;3.90;1.60;;;;;;;;;;5028380;28;20260;-68
2024/04/03 04:12:54;;;;;;;6.93;1.83;;;;;;;;;;5028010;28;20025;-68
2024/04/03 04:15:19;;;;;;;11.27;1.67;;;;;;;;;;5031159;28;20555;-68
2024/04/03 04:17:45;;;;;;;7.82;1.42;;;;;;;;;;5031115;28;20029;-68
2024/04/03 04:20:10;;;;;;;6.03;2.25;;;;;;;;;;5031009;28;20029;-68
2024/04/03 04:22:35;;;;;;;6.37;1.93;;;;;;;;;;5029860;28;20083;-68
2024/04/03 04:25:01;;;;;;;5.00;1.33;;;;;;;;;;5030050;28;20715;-68
2024/04/03 04:27:26;;;;;;;7.35;1.92;;;;;;;;;;5029374;28;20294;-68
2024/04/03 04:29:52;;;;;;;11.77;1.90;;;;;;;;;;5030004;28;20022;-68
2024/04/03 04:32:17;;;;;;;11.00;2.47;;;;;;;;;;5025566;28;20326;-68
2024/04/03 04:34:42;;;;;;;11.05;1.45;;;;;;;;;;5028824;28;20343;-68
2024/04/03 04:37:08;;;;;;;14.00;2.10;;;;;;;;;;5029356;28;20499;-68
2024/04/03 04:39:33;;;;;;;6.10;1.60;;;;;;;;;;5029541;28;20112;-68
2024/04/03 04:41:59;;;;;;;9.25;1.92;;;;;;;;;;5031511;28;20171;-68
2024/04/03 04:44:24;;;;;;;7.32;2.22;;;;;;;;;;5030651;28;20076;-68
2024/04/03 04:46:50;;;;;;;11.70;2.25;;;;;;;;;;5027005;28;20026;-69
2024/04/03 04:49:15;;;;;;;10.65;2.00;;;;;;;;;;5030266;28;20026;-68
2024/04/03 04:51:40;;;;;;;13.30;2.30;;;;;;;;;;5027735;28;20022;-68
2024/04/03 04:54:06;;;;;;;5.10;1.77;;;;;;;;;;5029978;28;20029;-69
2024/04/03 04:56:31;;;;;;;10.80;2.38;;;;;;;;;;5028999;28;20022;-68
2024/04/03 04:58:56;;;;;;;5.80;1.57;;;;;;;;;;5030313;28;20033;-68
2024/04/03 05:01:21;;;;;;;5.00;1.98;;;;;;;;;;5027888;28;20252;-68
2024/04/03 05:03:47;;;;;;;4.73;1.47;;;;;;;;;;5029333;28;20021;-67
2024/04/03 05:06:15;;;;;;;5.10;1.48;;;;;;;;;;5028149;28;20348;-68
2024/04/03 05:08:40;;;;;;;9.27;1.85;;;;;;;;;;5028635;28;20396;-68
2024/04/03 05:11:06;;;;;;;6.47;1.75;;;;;;;;;;5029685;28;20024;-68
2024/04/03 05:13:34;;;;;;;14.48;2.10;;;;;;;;;;5026904;28;20028;-67
2024/04/03 05:16:09;;;;;;;4.05;1.55;;;;;;;;;;5029716;28;20031;-68
2024/04/03 05:18:34;;;;;;;4.03;1.83;;;;;;;;;;5029615;28;20033;-68
2024/04/03 05:21:00;;;;;;;8.30;1.88;;;;;;;;;;5020769;28;20106;-68
2024/04/03 05:23:25;;;;;;;7.90;1.50;;;;;;;;;;5026173;28;20029;-68
2024/04/03 05:26:00;;;;;;;9.07;1.65;;;;;;;;;;5027377;28;20037;-69
2024/04/03 05:28:26;;;;;;;5.60;1.00;;;;;;;;;;5027883;28;20029;-68
2024/04/03 05:30:52;;;;;;;3.28;1.45;;;;;;;;;;5021442;28;20389;-68
2024/04/03 05:33:17;;;;;;;19.52;2.55;;;;;;;;;;5026211;28;20070;-68
2024/04/03 05:35:52;;;;;;;8.25;1.92;;;;;;;;;;5026754;28;20033;-68
2024/04/03 05:38:18;;;;;;;13.10;2.38;;;;;;;;;;5023904;28;20377;-68
2024/04/03 05:40:43;;;;;;;10.02;1.45;;;;;;;;;;5025687;28;20059;-68
2024/04/03 05:43:08;;;;;;;1.37;0.70;;;;;;;;;;5020961;28;20030;-68
2024/04/03 05:45:33;;;;;;;15.53;1.77;;;;;;;;;;5027425;28;20271;-68
2024/04/03 05:47:59;;;;;;;5.88;1.02;;;;;;;;;;5027577;28;20295;-68
2024/04/03 05:50:24;;;;;;;6.27;1.87;;;;;;;;;;5023215;28;20092;-68
2024/04/03 05:52:49;;;;;;;5.35;1.55;;;;;;;;;;5024207;28;20268;-67
2024/04/03 05:55:15;;;;;;;12.15;2.08;;;;;;;;;;5029672;28;20044;-68
2024/04/03 05:57:40;;;;;;;6.07;1.10;;;;;;;;;;5029812;28;20033;-68
2024/04/03 06:00:05;;;;;;;4.07;1.30;;;;;;;;;;5028310;28;20067;-68
2024/04/03 06:02:31;;;;;;;7.45;0.95;;;;;;;;;;5023901;28;20029;-68
2024/04/03 06:04:56;;;;;;;5.68;1.27;;;;;;;;;;5024519;28;20025;-67
2024/04/03 06:07:21;;;;;;;5.30;0.87;;;;;;;;;;5028669;28;20532;-68
2024/04/03 06:09:47;;;;;;;6.93;1.65;;;;;;;;;;5024524;28;20259;-68
2024/04/03 06:12:12;;;;;;;5.68;0.80;;;;;;;;;;5025862;28;20455;-68
2024/04/03 06:14:38;;;;;;;2.03;0.87;;;;;;;;;;5027614;28;20032;-68
2024/04/03 06:17:03;;;;;;;9.15;2.28;;;;;;;;;;5020308;28;20296;-68
2024/04/03 06:19:28;;;;;;;3.80;0.73;;;;;;;;;;5024202;28;20061;-67
2024/04/03 06:21:53;;;;;;;7.10;0.90;;;;;;;;;;5027452;28;20480;-68
2024/04/03 06:24:18;;;;;;;2.17;0.57;;;;;;;;;;5026161;28;20256;-68
2024/04/03 06:26:44;;;;;;;13.67;1.53;;;;;;;;;;5027073;28;20299;-68
2024/04/03 06:29:09;;;;;;;13.52;1.73;;;;;;;;;;5028663;28;20318;-68
2024/04/03 06:31:34;;;;;;;0.70;0.70;;;;;;;;;;5026180;28;20075;-68
2024/04/03 06:34:00;;;;;;;2.73;0.90;;;;;;;;;;5026998;28;20253;-68
2024/04/03 06:36:26;;;;;;;8.15;1.33;;;;;;;;;;5025462;28;20270;-68
2024/04/03 06:38:52;;;;;;;1.02;0.63;;;;;;;;;;5028649;28;20144;-68
2024/04/03 06:41:17;;;;;;;1.67;1.40;;;;;;;;;;5028051;28;20049;-68
2024/04/03 06:43:42;;;;;;;5.67;1.30;;;;;;;;;;5024664;28;20844;-68
2024/04/03 06:46:07;;;;;;;3.97;0.77;;;;;;;;;;5025385;28;20264;-68
2024/04/03 06:48:32;;;;;;;2.33;0.77;;;;;;;;;;5032476;28;20678;-68
2024/04/03 06:50:58;;;;;;;2.55;0.70;;;;;;;;;;5029882;28;20029;-68
2024/04/03 06:53:23;;;;;;;8.20;1.17;;;;;;;;;;5030699;28;20038;-67
2024/04/03 06:55:58;;;;;;;2.55;1.27;;;;;;;;;;5031051;28;20028;-68
2024/04/03 06:58:23;;;;;;;1.95;1.30;;;;;;;;;;5031446;28;20032;-67
2024/04/03 07:00:49;;;;;;;4.32;1.23;;;;;;;;;;5032260;28;20025;-68
2024/04/03 07:03:14;;;;;;;6.22;0.77;;;;;;;;;;5031250;28;20061;-68
2024/04/03 07:05:39;;;;;;;1.73;0.63;;;;;;;;;;5031089;28;20071;-68
2024/04/03 07:08:06;;;;;;;3.85;2.83;;;;;;;;;;5027779;28;20112;-68
2024/04/03 07:10:31;;;;;;;1.30;0.63;;;;;;;;;;5030375;28;20112;-68
2024/04/03 07:13:00;;;;;;;7.05;1.00;;;;;;;;;;5031191;28;20518;-67
2024/04/03 07:15:25;;;;;;;2.72;1.13;;;;;;;;;;5030310;28;20087;-68
2024/04/03 07:17:50;;;;;;;10.60;1.93;;;;;;;;;;5030185;28;20462;-68
2024/04/03 07:20:15;;;;;;;2.13;0.63;;;;;;;;;;5030493;28;20272;-68
2024/04/03 07:22:40;;;;;;;0.93;0.67;;;;;;;;;;5031084;28;20276;-68
2024/04/03 07:25:06;;;;;;;3.30;1.17;;;;;;;;;;5029182;28;20267;-68
2024/04/03 07:27:31;;;;;;;7.40;1.38;;;;;;;;;;5030852;28;20500;-68
2024/04/03 07:29:56;;;;;;;4.70;1.00;;;;;;;;;;5030683;28;20117;-68
2024/04/03 07:32:21;;;;;;;7.83;1.30;;;;;;;;;;5031894;28;20252;-68
2024/04/03 07:34:46;;;;;;;7.40;1.53;;;;;;;;;;5029990;28;20363;-68
2024/04/03 07:37:11;;;;;;;8.77;1.27;;;;;;;;;;5027103;28;20271;-67
2024/04/03 07:39:36;;;;;;;3.80;1.00;;;;;;;;;;5027749;28;20370;-68
2024/04/03 07:42:02;;;;;;;8.57;1.50;;;;;;;;;;5030418;28;20267;-67
2024/04/03 07:44:27;;;;;;;9.93;0.88;;;;;;;;;;5030596;28;20048;-68
2024/04/03 07:46:52;;;;;;;6.32;1.10;;;;;;;;;;5030633;28;20029;-68
2024/04/03 07:49:17;;;;;;;3.33;1.33;;;;;;;;;;5029908;28;20152;-68
2024/04/03 07:51:46;;;;;;;6.80;1.27;;;;;;;;;;5029887;28;20629;-68
2024/04/03 07:54:11;;;;;;;5.40;1.25;;;;;;;;;;5027279;28;20279;-68
2024/04/03 07:56:36;;;;;;;4.07;1.30;;;;;;;;;;5024695;28;20026;-68
2024/04/03 07:59:02;;;;;;;2.80;0.87;;;;;;;;;;5029381;28;20108;-68
2024/04/03 08:01:27;;;;;;;7.07;1.58;;;;;;;;;;5027796;28;20269;-67
2024/04/03 08:03:52;;;;;;;3.77;0.77;;;;;;;;;;5029822;28;20021;-68
2024/04/03 08:06:17;;;;;;;1.23;0.70;;;;;;;;;;5031065;28;20303;-68
2024/04/03 08:08:42;;;;;;;7.83;1.83;;;;;;;;;;5031346;28;20276;-68
2024/04/03 08:11:07;;;;;;;1.83;0.65;;;;;;;;;;5025862;28;20283;-68
2024/04/03 08:13:33;;;;;;;2.33;0.87;;;;;;;;;;5026498;28;20076;-68
2024/04/03 08:16:02;;;;;;;2.03;0.82;;;;;;;;;;5030523;28;20786;-68
2024/04/03 08:18:27;;;;;;;0.65;0.30;;;;;;;;;;5031106;28;20104;-68
2024/04/03 08:21:00;;;;;;;6.15;0.93;;;;;;;;;;5024424;28;20475;-68
2024/04/03 08:23:25;;;;;;;5.50;1.55;;;;;;;;;;5023416;28;20060;-68
2024/04/03 08:25:51;;;;;;;7.90;0.98;;;;;;;;;;5027637;28;20061;-68
2024/04/03 08:28:16;;;;;;;1.23;0.50;;;;;;;;;;5030572;28;20037;-68
2024/04/03 08:30:41;;;;;;;11.07;1.07;;;;;;;;;;5031223;28;20330;-68
2024/04/03 08:33:10;;;;;;;7.20;0.90;;;;;;;;;;5029533;28;20284;-68
2024/04/03 08:35:35;;;;;;;1.98;0.82;;;;;;;;;;5028012;28;20276;-67
2024/04/03 08:38:00;;;;;;;0.40;0.23;;;;;;;;;;5025730;28;20021;-68
2024/04/03 08:40:25;;;;;;;22.20;1.73;;;;;;;;;;5031648;28;20315;-68
2024/04/03 08:42:50;;;;;;;1.40;0.73;;;;;;;;;;5025478;28;20341;-68
2024/04/03 08:45:17;;;;;;;5.35;0.63;;;;;;;;;;5028936;28;20252;-68
2024/04/03 08:47:43;;;;;;;4.05;1.02;;;;;;;;;;5028815;28;20064;-68
2024/04/03 08:50:08;;;;;;;1.55;0.50;;;;;;;;;;5030583;28;20045;-68
2024/04/03 08:52:35;;;;;;;7.82;0.98;;;;;;;;;;5029361;28;20136;-68
2024/04/03 08:55:02;;;;;;;6.28;0.77;;;;;;;;;;5026618;28;20496;-68
2024/04/03 08:57:28;;;;;;;3.70;0.80;;;;;;;;;;5028292;28;20037;-68
2024/04/03 08:59:53;;;;;;;4.00;0.93;;;;;;;;;;5028523;28;20106;-68
2024/04/03 09:02:18;;;;;;;2.38;1.00;;;;;;;;;;5029737;28;20041;-68
2024/04/03 09:04:43;;;;;;;3.73;1.47;;;;;;;;;;5030765;28;20044;-68
2024/04/03 09:07:17;;;;;;;2.57;0.60;;;;;;;;;;5026668;28;20314;-68
2024/04/03 09:09:43;;;;;;;5.18;1.20;;;;;;;;;;5028679;28;20260;-68
2024/04/03 09:12:08;;;;;;;7.57;1.10;;;;;;;;;;5030011;28;20021;-68
2024/04/03 09:14:38;;;;;;;3.75;0.98;;;;;;;;;;5027811;28;20778;-68
2024/04/03 09:17:05;;;;;;;4.05;1.30;;;;;;;;;;5030174;28;20479;-68
2024/04/03 09:19:30;;;;;;;1.80;1.10;;;;;;;;;;5029614;28;20415;-68
2024/04/03 09:21:57;;;;;;;5.35;0.50;;;;;;;;;;5024695;28;20025;-68
2024/04/03 09:24:22;;;;;;;1.52;0.90;;;;;;;;;;5029837;28;20017;-68
2024/04/03 09:26:51;;;;;;;5.97;1.70;;;;;;;;;;5028273;28;20104;-68
2024/04/03 09:29:17;;;;;;;3.00;1.08;;;;;;;;;;5027704;28;20300;-68
2024/04/03 09:31:43;;;;;;;2.30;0.70;;;;;;;;;;5028258;28;20057;-68
2024/04/03 09:34:08;;;;;;;6.88;1.38;;;;;;;;;;5027219;28;20076;-68
2024/04/03 09:36:34;;;;;;;4.38;0.88;;;;;;;;;;5029966;28;20102;-68
2024/04/03 09:38:59;;;;;;;6.82;0.93;;;;;;;;;;5028084;28;20045;-68
2024/04/03 09:41:27;;;;;;;2.22;0.47;;;;;;;;;;5029054;28;20041;-68
2024/04/03 09:43:56;;;;;;;6.57;0.98;;;;;;;;;;5026374;28;20044;-68
2024/04/03 09:46:22;;;;;;;4.47;1.10;;;;;;;;;;5028000;28;20031;-68
2024/04/03 09:48:49;;;;;;;1.85;0.63;;;;;;;;;;5028766;28;20480;-68
2024/04/03 09:51:15;;;;;;;6.32;1.30;;;;;;;;;;5025283;28;20048;-68
2024/04/03 09:53:40;;;;;;;2.75;1.08;;;;;;;;;;5028658;28;20572;-68
2024/04/03 09:56:06;;;;;;;5.20;0.70;;;;;;;;;;5026632;28;20091;-68
2024/04/03 09:58:35;;;;;;;1.85;0.90;;;;;;;;;;5026667;28;20112;-68
2024/04/03 10:01:02;;;;;;;1.80;0.52;;;;;;;;;;5027534;28;20029;-68
2024/04/03 10:03:28;;;;;;;2.05;0.70;;;;;;;;;;5027906;28;20097;-68
2024/04/03 10:06:00;;;;;;;4.97;1.30;;;;;;;;;;5024356;28;20096;-68
2024/04/03 10:08:35;;;;;;;1.48;0.60;;;;;;;;;;5028390;28;20108;-68
2024/04/03 10:11:04;;;;;;;0.60;0.50;;;;;;;;;;5023531;28;20043;-68
2024/04/03 10:13:29;;;;;;;4.20;1.05;;;;;;;;;;5028547;28;20393;-68
2024/04/03 10:16:01;;;;;;;2.90;0.52;;;;;;;;;;5026952;28;20017;-68
2024/04/03 10:18:27;;;;;;;0.75;0.47;;;;;;;;;;5026838;28;20068;-68
2024/04/03 10:20:54;;;;;;;0.77;0.55;;;;;;;;;;5029123;28;20018;-69
2024/04/03 10:23:20;;;;;;;1.33;0.50;;;;;;;;;;5025267;28;20017;-68
2024/04/03 10:25:45;;;;;;;2.00;0.60;;;;;;;;;;5031080;28;20028;-68
2024/04/03 10:28:11;;;;;;;1.35;0.43;;;;;;;;;;5027119;28;20758;-68
2024/04/03 10:30:37;;;;;;;0.57;0.43;;;;;;;;;;5028006;28;20021;-68
2024/04/03 10:33:03;;;;;;;3.38;0.68;;;;;;;;;;5023587;28;20033;-68
2024/04/03 10:35:29;;;;;;;2.50;0.50;;;;;;;;;;5029111;28;20013;-68
2024/04/03 10:37:57;;;;;;;3.42;0.57;;;;;;;;;;5028153;28;20027;-68
2024/04/03 10:40:23;;;;;;;0.40;0.30;;;;;;;;;;5028239;28;20013;-68
2024/04/03 10:42:48;;;;;;;1.13;0.40;;;;;;;;;;5027409;28;20033;-68
2024/04/03 10:45:14;;;;;;;2.42;0.55;;;;;;;;;;5028411;28;20056;-68
2024/04/03 10:47:39;;;;;;;1.40;0.40;;;;;;;;;;5026510;28;20030;-68
2024/04/03 10:50:05;;;;;;;2.33;0.57;;;;;;;;;;5026194;28;20315;-68
2024/04/03 10:52:30;;;;;;;1.17;0.50;;;;;;;;;;5028226;28;20076;-68
2024/04/03 10:54:56;;;;;;;4.18;0.50;;;;;;;;;;5028940;28;20049;-70
2024/04/03 10:57:21;;;;;;;0.47;0.47;;;;;;;;;;5027278;28;20017;-68
2024/04/03 10:59:46;;;;;;;1.48;0.40;;;;;;;;;;5027094;28;20705;-68
2024/04/03 11:02:14;;;;;;;0.88;0.45;;;;;;;;;;5024294;28;20030;-68
2024/04/03 11:04:39;;;;;;;0.40;0.20;;;;;;;;;;5027443;28;20180;-68
2024/04/03 11:07:04;;;;;;;1.50;0.50;;;;;;;;;;5024920;28;20517;-68
2024/04/03 11:09:30;;;;;;;1.00;0.50;;;;;;;;;;5029329;28;20264;-68
2024/04/03 11:12:00;;;;;;;1.20;0.50;;;;;;;;;;5028536;28;20025;-68
2024/04/03 11:14:25;;;;;;;0.85;0.22;;;;;;;;;;5021209;28;20109;-68
2024/04/03 11:16:51;;;;;;;5.00;0.67;;;;;;;;;;5027225;28;20112;-68
2024/04/03 11:19:16;;;;;;;2.22;0.55;;;;;;;;;;5026000;28;20253;-68
2024/04/03 11:21:41;;;;;;;2.37;0.50;;;;;;;;;;5028804;28;20083;-68
2024/04/03 11:24:09;;;;;;;1.80;0.53;;;;;;;;;;5027397;28;20289;-68
2024/04/03 11:26:34;;;;;;;0.30;0.30;;;;;;;;;;5028140;28;20272;-68
2024/04/03 11:28:59;;;;;;;0.60;0.40;;;;;;;;;;5023337;28;20079;-68
2024/04/03 11:31:25;;;;;;;0.77;0.30;;;;;;;;;;5026465;28;20284;-68
2024/04/03 11:33:51;;;;;;;1.30;0.40;;;;;;;;;;5027897;28;20260;-69
2024/04/03 11:36:19;;;;;;;0.77;0.37;;;;;;;;;;5031581;28;20017;-68
2024/04/03 11:38:45;;;;;;;2.17;0.43;;;;;;;;;;5032627;28;20275;-68
2024/04/03 11:41:10;;;;;;;1.10;0.25;;;;;;;;;;5031142;28;20029;-68
2024/04/03 11:43:36;;;;;;;0.83;0.33;;;;;;;;;;5029732;28;20125;-68
2024/04/03 11:46:01;;;;;;;1.25;0.30;;;;;;;;;;5027409;28;20408;-68
2024/04/03 11:48:27;;;;;;;0.55;0.20;;;;;;;;;;5031109;28;20064;-68
2024/04/03 11:50:52;;;;;;;0.27;0.10;;;;;;;;;;5031995;28;20097;-68
2024/04/03 11:53:17;;;;;;;1.80;1.70;;;;;;;;;;5028562;28;20608;-68
2024/04/03 11:55:42;;;;;;;0.97;0.30;;;;;;;;;;5029938;28;20308;-68
2024/04/03 11:58:08;;;;;;;3.55;0.40;;;;;;;;;;5028860;28;20627;-67
2024/04/03 12:00:33;;;;;;;1.55;0.30;;;;;;;;;;5027774;28;20522;-68
2024/04/03 12:02:58;;;;;;;2.10;0.55;;;;;;;;;;5031097;28;20021;-68
2024/04/03 12:05:23;;;;;;;0.52;0.35;;;;;;;;;;5030189;28;20459;-68
2024/04/03 12:07:49;;;;;;;1.70;0.33;;;;;;;;;;5029534;28;20087;-68
2024/04/03 12:10:14;;;;;;;0.40;0.25;;;;;;;;;;5029022;28;20656;-68
2024/04/03 12:12:39;;;;;;;2.10;0.20;;;;;;;;;;5026981;28;20026;-68
2024/04/03 12:15:06;;;;;;;0.45;0.30;;;;;;;;;;5029399;28;20029;-68
2024/04/03 12:17:33;;;;;;;1.27;0.30;;;;;;;;;;5026857;28;20025;-68
2024/04/03 12:22:26;;;;;;;0.15;0.15;;;;;;;;;;5027827;28;20035;-67
2024/04/03 12:24:51;;;;;;;0.67;0.67;;;;;;;;;;5026472;28;20772;-68
2024/04/03 12:27:16;;;;;;;1.37;0.40;;;;;;;;;;5029799;28;21472;-68
2024/04/03 12:29:41;;;;;;;0.10;0.10;;;;;;;;;;5029512;28;20754;-68
2024/04/03 12:32:07;;;;;;;3.20;0.80;;;;;;;;;;5030189;28;20271;-68
2024/04/03 12:34:32;;;;;;;2.05;0.40;;;;;;;;;;5029095;28;20490;-68
2024/04/03 12:36:57;;;;;;;0.30;0.20;;;;;;;;;;5023977;28;20538;-68
2024/04/03 12:39:25;;;;;;;1.20;0.30;;;;;;;;;;5029381;28;20469;-68
2024/04/03 12:41:50;;;;;;;0.60;0.30;;;;;;;;;;5030630;28;20628;-68
2024/04/03 12:44:15;;;;;;;0.30;0.20;;;;;;;;;;5028867;28;20082;-68
2024/04/03 12:46:41;;;;;;;0.47;0.40;;;;;;;;;;5027587;28;20029;-68
2024/04/03 12:49:06;;;;;;;1.80;0.30;;;;;;;;;;5024609;28;20362;-70
2024/04/03 12:51:32;;;;;;;1.60;0.30;;;;;;;;;;5028181;28;20427;-69
2024/04/03 12:53:57;;;;;;;2.45;0.22;;;;;;;;;;5028963;28;20026;-68
2024/04/03 12:56:22;;;;;;;1.13;0.33;;;;;;;;;;5028437;28;20037;-69
2024/04/03 12:58:48;;;;;;;2.85;0.55;;;;;;;;;;5027729;28;20352;-69
2024/04/03 13:01:13;;;;;;;6.50;0.50;;;;;;;;;;5028808;28;20037;-69
2024/04/03 13:03:38;;;;;;;1.10;0.40;;;;;;;;;;5029124;28;20027;-69
2024/04/03 13:06:04;;;;;;;0.93;0.30;;;;;;;;;;5029067;28;20110;-69
2024/04/03 13:08:30;;;;;;;2.78;0.30;;;;;;;;;;5029475;28;20287;-68
2024/04/03 13:10:55;;;;;;;1.20;0.30;;;;;;;;;;5029460;28;20021;-68
2024/04/03 13:13:21;;;;;;;1.30;0.20;;;;;;;;;;5027253;28;20017;-69
2024/04/03 13:15:46;;;;;;;2.90;0.40;;;;;;;;;;5025235;28;20018;-69
2024/04/03 13:18:13;;;;;;;4.72;0.45;;;;;;;;;;5029974;28;20655;-69
2024/04/03 13:20:38;;;;;;;1.48;0.45;;;;;;;;;;5028438;28;20048;-69
2024/04/03 13:23:04;;;;;;;0.40;0.20;;;;;;;;;;5033696;28;20022;-69
2024/04/03 13:25:29;;;;;;;0.93;0.40;;;;;;;;;;5029989;28;20492;-70
2024/04/03 13:27:55;;;;;;;0.88;0.47;;;;;;;;;;5027944;28;20279;-69
2024/04/03 13:30:22;;;;;;;0.22;0.20;;;;;;;;;;5029482;28;20064;-69
2024/04/03 13:32:47;;;;;;;1.33;0.30;;;;;;;;;;5029557;28;20030;-69
2024/04/03 13:35:13;;;;;;;1.03;0.50;;;;;;;;;;5029789;28;20022;-68
2024/04/03 13:37:38;;;;;;;2.28;0.55;;;;;;;;;;5029111;28;20622;-69
2024/04/03 13:40:04;;;;;;;1.48;0.57;;;;;;;;;;5029277;28;20029;-69
2024/04/03 13:42:29;;;;;;;0.85;0.40;;;;;;;;;;5029091;28;20082;-69
2024/04/03 13:44:54;;;;;;;1.88;0.40;;;;;;;;;;5029448;28;20550;-69
2024/04/03 13:47:19;;;;;;;1.65;0.55;;;;;;;;;;5028829;28;20029;-68
2024/04/03 13:49:45;;;;;;;2.30;0.40;;;;;;;;;;5029536;28;20466;-69
2024/04/03 13:52:14;;;;;;;0.40;0.37;;;;;;;;;;5029546;28;20244;-69
2024/04/03 13:54:39;;;;;;;3.60;0.90;;;;;;;;;;5028153;28;20626;-69
2024/04/03 13:57:04;;;;;;;0.25;0.20;;;;;;;;;;5029028;28;20096;-68
2024/04/03 13:59:30;;;;;;;1.13;0.40;;;;;;;;;;5028918;28;20097;-69
2024/04/03 14:01:55;;;;;;;0.40;0.40;;;;;;;;;;5029515;28;20264;-68
2024/04/03 14:04:20;;;;;;;0.30;0.30;;;;;;;;;;5029593;28;20496;-68
2024/04/03 14:06:45;;;;;;;1.15;0.60;;;;;;;;;;5026547;28;20469;-68
2024/04/03 14:09:11;;;;;;;1.77;0.53;;;;;;;;;;5026875;28;20033;-70
2024/04/03 14:11:36;;;;;;;1.90;0.50;;;;;;;;;;5028618;28;20371;-71
2024/04/03 14:14:04;;;;;;;0.40;0.37;;;;;;;;;;5024154;28;20099;-69
2024/04/03 14:16:30;;;;;;;1.15;0.40;;;;;;;;;;5026121;28;20264;-70
2024/04/03 14:18:55;;;;;;;1.00;0.50;;;;;;;;;;5028416;28;20031;-69
2024/04/03 14:21:20;;;;;;;0.82;0.57;;;;;;;;;;5030129;28;20758;-69
2024/04/03 14:23:45;;;;;;;0.73;0.40;;;;;;;;;;5030646;28;20017;-69
2024/04/03 14:26:11;;;;;;;0.67;0.63;;;;;;;;;;5027982;28;20342;-69
2024/04/03 14:28:36;;;;;;;0.95;0.47;;;;;;;;;;5028463;28;20280;-69
2024/04/03 14:31:02;;;;;;;1.65;0.60;;;;;;;;;;5026076;28;20225;-69
2024/04/03 14:33:27;;;;;;;1.20;0.55;;;;;;;;;;5028256;28;20087;-70
2024/04/03 14:35:52;;;;;;;3.70;0.40;;;;;;;;;;5027471;28;20018;-70